createdAt,value
2022-11-07T00:02:58.805Z,7.10
2022-11-07T00:07:00.919Z,7.70
2022-11-07T00:11:03.086Z,8.93
2022-11-07T00:15:06.401Z,7.83
2022-11-07T00:19:08.184Z,7.60
2022-11-07T00:23:09.937Z,8.20
2022-11-07T00:27:11.791Z,8.53
2022-11-07T00:31:14.380Z,8.47
2022-11-07T00:35:16.308Z,8.23
2022-11-07T00:39:18.126Z,8.13
2022-11-07T00:43:20.445Z,8.13
2022-11-07T00:47:22.248Z,8.57
2022-11-07T00:51:26.356Z,8.90
2022-11-07T00:55:28.132Z,9.13
2022-11-07T00:59:30.009Z,9.07
2022-11-07T01:03:50.409Z,8.80
2022-11-07T01:07:52.628Z,9.77
2022-11-07T01:11:54.480Z,9.63
2022-11-07T01:15:56.277Z,9.57
2022-11-07T01:19:58.055Z,9.77
2022-11-07T01:24:00.344Z,9.63
2022-11-07T01:28:12.628Z,9.73
2022-11-07T01:32:14.558Z,9.63
2022-11-07T01:36:17.803Z,9.40
2022-11-07T01:40:19.862Z,9.13
2022-11-07T01:44:21.692Z,9.23
2022-11-07T01:48:23.552Z,9.40
2022-11-07T01:52:35.308Z,10.30
2022-11-07T01:56:39.186Z,10.03
2022-11-07T02:00:41.012Z,11.57
2022-11-07T02:04:42.888Z,11.53
2022-11-07T02:08:45.568Z,10.20
2022-11-07T02:12:47.496Z,10.43
2022-11-07T02:16:49.298Z,12.23
2022-11-07T02:20:51.578Z,12.03
2022-11-07T02:24:56.893Z,11.40
2022-11-07T02:28:58.772Z,10.87
2022-11-07T02:33:02.094Z,9.93
2022-11-07T02:37:07.332Z,10.40
2022-11-07T02:41:31.210Z,10.20
2022-11-07T02:45:34.739Z,10.53
2022-11-07T02:49:39.090Z,10.43
2022-11-07T02:53:40.912Z,9.73
2022-11-07T02:57:42.844Z,10.17
2022-11-07T03:01:50.910Z,9.37
2022-11-07T03:06:05.822Z,10.00
2022-11-07T03:10:15.789Z,9.50
2022-11-07T03:14:23.819Z,9.97
2022-11-07T03:18:31.778Z,9.27
2022-11-07T03:22:33.646Z,9.50
2022-11-07T03:26:35.463Z,9.73
2022-11-07T03:30:37.286Z,9.37
2022-11-07T03:34:39.267Z,9.87
2022-11-07T03:38:41.050Z,10.20
2022-11-07T03:42:44.234Z,9.53
2022-11-07T03:46:46.099Z,10.37
2022-11-07T03:50:47.942Z,10.60
2022-11-07T03:54:50.986Z,8.73
2022-11-07T03:58:52.756Z,9.30
2022-11-07T04:02:54.641Z,9.43
2022-11-07T04:06:56.588Z,9.33
2022-11-07T04:10:58.401Z,9.50
2022-11-07T04:15:19.027Z,9.10
2022-11-07T04:19:20.841Z,8.63
2022-11-07T04:23:22.719Z,9.43
2022-11-07T04:27:43.036Z,9.43
2022-11-07T04:31:44.804Z,10.27
2022-11-07T04:35:46.662Z,8.23
2022-11-07T04:39:48.471Z,9.67
2022-11-07T04:43:50.439Z,9.00
2022-11-07T04:47:52.490Z,9.37
2022-11-07T04:51:57.646Z,9.43
2022-11-07T04:55:59.399Z,9.00
2022-11-07T05:00:01.313Z,9.83
2022-11-07T05:04:03.216Z,9.17
2022-11-07T05:08:05.767Z,9.40
2022-11-07T05:12:07.724Z,8.93
2022-11-07T05:16:15.784Z,9.03
2022-11-07T05:20:34.690Z,9.10
2022-11-07T05:24:36.758Z,9.17
2022-11-07T05:28:50.022Z,9.23
2022-11-07T05:32:52.810Z,9.20
2022-11-07T05:36:54.759Z,9.17
2022-11-07T05:41:02.941Z,9.00
2022-11-07T05:45:05.661Z,9.40
2022-11-07T05:49:07.988Z,9.13
2022-11-07T05:53:10.107Z,9.30
2022-11-07T05:57:12.158Z,9.00
2022-11-07T06:01:18.733Z,9.13
2022-11-07T06:05:24.031Z,9.00
2022-11-07T06:09:26.477Z,8.57
2022-11-07T06:13:28.762Z,8.87
2022-11-07T06:17:32.346Z,9.73
2022-11-07T06:21:35.345Z,8.30
2022-11-07T06:25:44.004Z,8.13
2022-11-07T06:29:48.497Z,9.00
2022-11-07T06:33:51.446Z,8.57
2022-11-07T06:37:53.521Z,8.37
2022-11-07T06:41:56.662Z,9.07
2022-11-07T06:46:16.403Z,9.10
2022-11-07T08:40:37.090Z,7.03
2022-11-07T08:44:40.979Z,3.40
2022-11-07T08:48:45.725Z,2.80
2022-11-07T08:52:50.103Z,1.70
2022-11-07T08:56:58.019Z,1.70
2022-11-07T09:06:31.586Z,1.33
2022-11-07T09:26:45.859Z,1.33
2022-11-07T09:30:49.946Z,1.33
2022-11-07T10:30:03.624Z,0.80
2022-11-07T10:35:23.543Z,0.97
2022-11-07T10:45:28.816Z,1.27
2022-11-07T10:49:32.126Z,1.10
2022-11-07T10:53:36.805Z,1.10
2022-11-07T10:58:37.374Z,1.13
2022-11-07T12:06:40.109Z,1.63
2022-11-07T12:11:00.477Z,1.10
2022-11-07T12:15:23.673Z,1.20
2022-11-07T12:19:37.421Z,1.60
2022-11-07T12:24:08.057Z,1.00
2022-11-07T12:28:41.517Z,1.20
2022-11-07T12:33:21.811Z,0.90
2022-11-07T12:37:59.693Z,1.07
2022-11-07T12:42:31.978Z,1.03
2022-11-07T12:47:00.456Z,1.10
2022-11-07T12:51:50.744Z,0.87
2022-11-07T12:57:02.417Z,1.03
2022-11-07T13:01:04.732Z,1.17
2022-11-07T13:05:57.217Z,1.03
2022-11-07T13:10:21.462Z,1.20
2022-11-07T13:14:44.529Z,1.10
2022-11-07T13:18:49.052Z,0.90
2022-11-07T13:22:54.856Z,1.20
2022-11-07T13:26:58.237Z,1.10
2022-11-07T13:31:07.943Z,1.10
2022-11-07T13:35:40.851Z,1.10
2022-11-07T13:40:09.502Z,0.90
2022-11-07T13:44:33.775Z,1.07
2022-11-07T13:49:01.942Z,1.00
2022-11-07T13:53:05.962Z,1.07
2022-11-07T13:57:16.228Z,1.20
2022-11-07T14:01:23.058Z,0.97
2022-11-07T14:21:27.851Z,0.90
2022-11-07T14:25:35.895Z,0.90
2022-11-07T14:29:37.894Z,1.00
2022-11-07T14:33:39.789Z,1.07
2022-11-07T14:38:15.205Z,1.03
2022-11-07T14:42:22.909Z,1.00
2022-11-07T14:46:25.372Z,1.03
2022-11-07T14:50:30.341Z,1.10
2022-11-07T14:54:43.074Z,1.20
2022-11-07T14:58:45.538Z,0.80
2022-11-07T15:02:49.533Z,0.90
2022-11-07T15:07:12.768Z,1.40
2022-11-07T15:11:15.133Z,0.80
2022-11-07T15:20:37.524Z,1.10
2022-11-07T15:45:04.791Z,0.90
2022-11-07T15:49:24.933Z,1.33
2022-11-07T15:54:29.579Z,1.10
2022-11-07T15:58:57.153Z,1.53
2022-11-07T16:03:53.978Z,1.70
2022-11-07T16:08:12.861Z,1.80
2022-11-07T16:12:30.522Z,1.80
2022-11-07T16:16:36.567Z,1.47
2022-11-07T16:32:38.177Z,2.07
2022-11-07T17:02:25.387Z,2.43
2022-11-07T17:06:32.352Z,2.30
2022-11-07T17:54:29.110Z,2.37
2022-11-07T20:05:02.732Z,2.00
2022-11-07T20:09:25.995Z,2.10
2022-11-07T20:18:05.101Z,1.80
2022-11-07T20:51:07.619Z,1.73
2022-11-07T20:55:12.567Z,1.97
2022-11-07T20:59:57.898Z,1.90
2022-11-07T21:04:25.407Z,2.40
2022-11-07T21:55:36.001Z,3.30
2022-11-07T21:59:41.040Z,2.77
2022-11-07T22:08:05.136Z,3.00
2022-11-07T22:12:09.132Z,4.20
2022-11-07T22:16:13.788Z,3.97
2022-11-07T22:20:15.839Z,4.40
2022-11-07T22:24:20.333Z,4.07
2022-11-07T22:28:22.207Z,4.90
2022-11-07T22:32:24.043Z,4.40
2022-11-07T22:36:26.057Z,4.53
2022-11-07T22:40:27.953Z,4.00
2022-11-07T22:44:29.857Z,4.50
2022-11-07T22:48:32.103Z,4.50
2022-11-07T22:52:34.096Z,4.53
2022-11-07T22:56:36.410Z,3.80
2022-11-07T23:00:38.331Z,4.50
2022-11-07T23:04:40.259Z,3.77
2022-11-07T23:08:42.322Z,4.30
2022-11-07T23:12:44.189Z,4.37
2022-11-07T23:16:53.806Z,4.77
2022-11-07T23:21:13.645Z,4.53
2022-11-07T23:25:15.652Z,4.40
2022-11-07T23:29:23.172Z,3.20
2022-11-07T23:33:28.272Z,2.00
2022-11-07T23:37:30.149Z,2.00
2022-11-07T23:41:31.951Z,1.60
2022-11-07T23:45:52.444Z,1.57
2022-11-07T23:50:20.372Z,1.90
2022-11-07T23:54:43.228Z,1.60
2022-11-07T23:59:04.144Z,1.57
